Time;durP1;ratioP1;P1;durP2;ratioP2;P2;SDS_P1;SDS_P2;PMS_P1;PMS_P2;Temp;Humidity;BMP_temperature;BMP_pressure;BME280_temperature;BME280_humidity;BME280_pressure;Samples;Min_cycle;Max_cycle;Signal;HPM_P1;HPM_P2
2023/04/24 00:00:22;;;;;;;0.40;0.40;;;;;;;6.83;100.00;100366.66;5035133;28;20047;-78
2023/04/24 00:02:50;;;;;;;0.40;0.40;;;;;;;6.77;100.00;100361.94;5035779;28;20387;-78
2023/04/24 00:05:17;;;;;;;0.40;0.40;;;;;;;6.79;100.00;100371.47;5051890;28;20025;-77
2023/04/24 00:07:44;;;;;;;0.40;0.40;;;;;;;6.78;100.00;100371.63;5052057;28;20037;-78
2023/04/24 00:10:11;;;;;;;0.30;0.30;;;;;;;6.59;100.00;100338.84;5035844;28;20123;-78
2023/04/24 00:12:37;;;;;;;0.40;0.40;;;;;;;6.78;100.00;100369.81;5035091;28;20029;-81
2023/04/24 00:15:03;;;;;;;0.40;0.40;;;;;;;6.81;100.00;100368.66;5051616;28;20113;-78
2023/04/24 00:17:30;;;;;;;0.40;0.40;;;;;;;6.76;100.00;100366.44;5002936;28;20399;-78
2023/04/24 00:19:59;;;;;;;0.40;0.40;;;;;;;6.75;100.00;100369.28;5051848;28;20083;-77
2023/04/24 00:22:28;;;;;;;0.30;0.30;;;;;;;6.73;100.00;100372.13;5051972;28;20072;-81
2023/04/24 00:24:54;;;;;;;0.40;0.40;;;;;;;6.74;100.00;100375.63;5019191;28;20056;-77
2023/04/24 00:27:20;;;;;;;0.40;0.40;;;;;;;6.74;100.00;100372.94;5051366;28;20155;-77
2023/04/24 00:29:49;;;;;;;0.40;0.40;;;;;;;6.75;100.00;100364.78;5051825;28;20059;-77
2023/04/24 00:32:15;;;;;;;0.40;0.40;;;;;;;6.75;100.00;100359.44;5023232;28;20032;-77
2023/04/24 00:34:41;;;;;;;0.40;0.40;;;;;;;6.75;100.00;100362.09;5038356;28;20032;-77
2023/04/24 00:37:07;;;;;;;0.40;0.40;;;;;;;6.71;100.00;100360.75;5022879;28;20033;-77
2023/04/24 00:39:32;;;;;;;0.40;0.40;;;;;;;6.72;100.00;100364.25;5038160;28;20027;-78
2023/04/24 00:41:58;;;;;;;0.40;0.40;;;;;;;6.67;100.00;100366.56;5055791;28;20033;-78
2023/04/24 00:44:28;;;;;;;0.43;0.43;;;;;;;6.65;100.00;100364.06;5039106;28;20677;-77
2023/04/24 00:46:54;;;;;;;0.80;0.57;;;;;;;6.65;100.00;100358.72;5054898;28;20498;-77
2023/04/24 00:49:24;;;;;;;0.40;0.40;;;;;;;6.59;100.00;100364.72;5038640;28;20036;-79
2023/04/24 00:51:51;;;;;;;0.63;0.63;;;;;;;6.54;100.00;100357.16;5038500;28;20539;-78
2023/04/24 00:54:18;;;;;;;0.88;0.65;;;;;;;6.51;100.00;100370.00;5039217;28;20114;-79
2023/04/24 00:56:44;;;;;;;0.50;0.50;;;;;;;6.45;100.00;100363.44;5021694;28;20124;-78
2023/04/24 00:59:11;;;;;;;0.40;0.40;;;;;;;6.41;100.00;100367.44;5038488;28;20029;-77
2023/04/24 01:01:37;;;;;;;0.50;0.50;;;;;;;6.39;100.00;100370.25;5021801;28;20039;-77
2023/04/24 01:04:03;;;;;;;4.22;1.02;;;;;;;6.39;100.00;100375.59;5054923;28;20394;-77
2023/04/24 01:06:30;;;;;;;0.50;0.50;;;;;;;6.38;100.00;100376.63;5054319;28;20033;-78
2023/04/24 01:08:59;;;;;;;0.43;0.43;;;;;;;6.36;100.00;100367.09;5039003;28;20033;-81
2023/04/24 01:11:25;;;;;;;0.75;0.75;;;;;;;6.36;100.00;100375.94;5038751;28;20491;-77
2023/04/24 01:13:54;;;;;;;0.50;0.50;;;;;;;6.36;100.00;100375.09;5054911;28;20041;-77
2023/04/24 01:16:20;;;;;;;0.40;0.40;;;;;;;6.28;100.00;100370.53;5005977;28;20033;-78
2023/04/24 01:18:46;;;;;;;0.40;0.40;;;;;;;6.25;100.00;100375.38;5054962;28;20033;-77
2023/04/24 01:21:14;;;;;;;0.40;0.40;;;;;;;6.27;100.00;100386.72;5021827;28;20051;-77
2023/04/24 01:23:40;;;;;;;0.40;0.40;;;;;;;6.20;100.00;100381.16;5022016;28;20123;-78
2023/04/24 01:26:06;;;;;;;0.40;0.40;;;;;;;6.23;100.00;100386.19;5037980;28;20111;-79
2023/04/24 01:28:32;;;;;;;0.40;0.40;;;;;;;6.26;100.00;100393.06;5038249;28;20053;-78
2023/04/24 01:30:58;;;;;;;0.40;0.40;;;;;;;6.29;100.00;100393.56;5037577;28;20049;-78
2023/04/24 01:33:23;;;;;;;0.40;0.40;;;;;;;6.28;100.00;100393.75;5037656;28;20192;-78
2023/04/24 01:35:54;;;;;;;0.40;0.40;;;;;;;6.31;100.00;100398.75;5037740;28;20123;-78
2023/04/24 01:38:19;;;;;;;0.40;0.40;;;;;;;6.26;100.00;100398.41;5021393;28;20116;-77
2023/04/24 01:40:45;;;;;;;0.40;0.40;;;;;;;6.15;100.00;100378.97;5054416;28;20199;-77
2023/04/24 01:43:12;;;;;;;0.50;0.50;;;;;;;6.32;100.00;100403.09;5053435;28;20029;-77
2023/04/24 01:45:37;;;;;;;0.40;0.40;;;;;;;6.35;100.00;100394.75;5005420;28;20063;-77
2023/04/24 01:48:03;;;;;;;0.50;0.50;;;;;;;6.34;100.00;100403.78;5054156;28;20506;-77
2023/04/24 01:50:29;;;;;;;0.45;0.45;;;;;;;6.33;100.00;100404.78;5037300;28;20040;-77
2023/04/24 01:52:55;;;;;;;0.30;0.30;;;;;;;6.30;100.00;100397.09;5037974;28;20433;-77
2023/04/24 01:55:21;;;;;;;0.50;0.50;;;;;;;6.27;100.00;100392.91;5037832;28;20033;-77
2023/04/24 01:57:52;;;;;;;0.40;0.40;;;;;;;6.33;100.00;100402.13;5053373;28;20025;-78
2023/04/24 02:00:18;;;;;;;0.40;0.40;;;;;;;6.32;100.00;100409.25;5037767;28;20063;-77
2023/04/24 02:02:46;;;;;;;0.40;0.40;;;;;;;6.20;100.00;100391.84;5053570;28;20112;-79
2023/04/24 02:05:11;;;;;;;0.40;0.40;;;;;;;6.26;100.00;100411.75;5021286;28;20491;-77
2023/04/24 02:07:37;;;;;;;0.50;0.50;;;;;;;6.25;100.00;100402.06;5036854;28;20103;-77
2023/04/24 02:10:07;;;;;;;0.57;0.57;;;;;;;6.29;100.00;100416.75;5055254;28;20060;-77
2023/04/24 02:12:36;;;;;;;0.50;0.50;;;;;;;6.27;100.00;100402.72;5021063;28;20037;-80
2023/04/24 02:15:02;;;;;;;0.40;0.40;;;;;;;6.28;100.00;100415.94;5037099;28;20033;-77
2023/04/24 02:17:33;;;;;;;0.50;0.50;;;;;;;6.34;100.00;100409.97;5037263;28;20067;-78
2023/04/24 02:19:59;;;;;;;0.52;0.52;;;;;;;6.25;100.00;100380.72;5037311;28;20048;-77
2023/04/24 02:22:27;;;;;;;0.68;0.68;;;;;;;6.36;100.00;100413.31;5036623;28;20380;-79
2023/04/24 02:24:52;;;;;;;0.50;0.50;;;;;;;6.36;100.00;100413.31;5053487;28;20099;-76
2023/04/24 02:27:18;;;;;;;0.40;0.40;;;;;;;6.31;100.00;100407.59;5037098;28;20043;-77
2023/04/24 02:29:44;;;;;;;0.40;0.40;;;;;;;6.28;100.00;100409.75;5053012;28;20044;-77
2023/04/24 02:32:11;;;;;;;0.50;0.50;;;;;;;6.20;100.00;100407.03;5053446;28;20029;-77
2023/04/24 02:34:40;;;;;;;0.52;0.52;;;;;;;6.10;100.00;100407.13;5053469;28;20116;-77
2023/04/24 02:37:05;;;;;;;0.60;0.60;;;;;;;6.06;100.00;100422.63;5053298;28;20433;-77
2023/04/24 02:39:31;;;;;;;0.40;0.40;;;;;;;6.01;100.00;100408.91;5053396;28;20033;-77
2023/04/24 02:41:57;;;;;;;0.40;0.40;;;;;;;6.04;100.00;100402.41;5054263;28;20037;-79
2023/04/24 02:44:23;;;;;;;0.40;0.40;;;;;;;6.10;100.00;100407.13;5053488;28;20029;-77
2023/04/24 02:46:48;;;;;;;0.40;0.40;;;;;;;6.13;100.00;100410.31;5053410;28;20084;-78
2023/04/24 02:49:14;;;;;;;0.50;0.50;;;;;;;6.12;100.00;100405.97;5019907;28;20479;-77
2023/04/24 02:51:41;;;;;;;0.40;0.40;;;;;;;6.13;100.00;100412.97;5053062;28;20029;-78
2023/04/24 02:54:09;;;;;;;0.45;0.45;;;;;;;6.13;100.00;100415.66;5052297;28;20035;-77
2023/04/24 02:56:35;;;;;;;0.40;0.40;;;;;;;5.97;100.00;100404.00;5015433;28;20041;-78
2023/04/24 02:59:01;;;;;;;0.40;0.40;;;;;;;5.97;100.00;100407.53;5053139;28;20033;-78
2023/04/24 03:01:27;;;;;;;0.40;0.40;;;;;;;5.87;100.00;100412.91;5035601;28;20044;-77
2023/04/24 03:03:52;;;;;;;0.40;0.40;;;;;;;5.80;100.00;100411.03;5035983;28;20460;-78
2023/04/24 03:06:18;;;;;;;0.60;0.60;;;;;;;5.77;100.00;100408.63;5054109;28;20044;-76
2023/04/24 03:08:44;;;;;;;0.40;0.40;;;;;;;5.79;100.00;100423.50;5035412;28;20041;-79
2023/04/24 03:11:09;;;;;;;0.50;0.50;;;;;;;5.79;100.00;100420.00;5052687;28;20072;-77
2023/04/24 03:13:35;;;;;;;0.30;0.30;;;;;;;5.85;100.00;100419.41;5052890;28;20034;-77
2023/04/24 03:16:01;;;;;;;0.40;0.40;;;;;;;5.93;100.00;100423.00;5034833;28;20048;-77
2023/04/24 03:18:31;;;;;;;0.47;0.47;;;;;;;5.94;100.00;100423.84;5053728;28;20130;-78
2023/04/24 03:20:56;;;;;;;0.50;0.50;;;;;;;5.82;100.00;100414.34;5052646;28;20047;-79
2023/04/24 03:23:22;;;;;;;0.40;0.40;;;;;;;5.89;100.00;100428.78;5052203;28;20037;-77
2023/04/24 03:25:48;;;;;;;0.40;0.40;;;;;;;5.84;100.00;100429.22;5019388;28;20043;-78
2023/04/24 03:28:14;;;;;;;0.60;0.60;;;;;;;5.78;100.00;100418.34;5052421;28;20522;-77
2023/04/24 03:30:42;;;;;;;0.50;0.50;;;;;;;5.85;100.00;100430.09;5035891;28;20025;-77
2023/04/24 03:33:10;;;;;;;0.70;0.70;;;;;;;5.80;100.00;100432.38;5035304;28;20486;-79
2023/04/24 03:35:36;;;;;;;0.70;0.70;;;;;;;5.77;100.00;100438.00;5036352;28;20036;-77
2023/04/24 03:38:04;;;;;;;0.60;0.60;;;;;;;5.76;100.00;100436.31;5035909;28;20075;-77
2023/04/24 03:40:33;;;;;;;0.68;0.68;;;;;;;5.78;100.00;100440.50;5053549;28;20033;-77
2023/04/24 03:42:59;;;;;;;0.75;0.70;;;;;;;5.84;100.00;100433.72;5052233;28;20094;-77
2023/04/24 03:45:25;;;;;;;0.95;0.95;;;;;;;5.91;100.00;100430.28;5051234;28;20456;-77
2023/04/24 03:47:50;;;;;;;0.68;0.47;;;;;;;5.84;100.00;100423.88;5052495;28;20456;-77
2023/04/24 03:50:26;;;;;;;0.55;0.55;;;;;;;5.86;100.00;100431.75;5020320;28;20068;-79
2023/04/24 03:52:52;;;;;;;0.68;0.68;;;;;;;5.77;100.00;100428.19;5052295;28;20036;-77
2023/04/24 03:55:17;;;;;;;1.17;0.85;;;;;;;5.80;100.00;100430.53;5051695;28;20037;-77
2023/04/24 03:57:45;;;;;;;1.13;1.02;;;;;;;5.67;100.00;100414.91;5052437;28;20037;-78
2023/04/24 04:00:12;;;;;;;1.30;1.20;;;;;;;5.66;100.00;100431.91;5052099;28;20029;-80
2023/04/24 04:02:37;;;;;;;0.80;0.80;;;;;;;5.61;100.00;100439.53;5051512;28;20029;-79
2023/04/24 04:05:05;;;;;;;0.85;0.85;;;;;;;5.39;100.00;100424.78;5035714;28;20510;-77
2023/04/24 04:07:36;;;;;;;0.60;0.60;;;;;;;5.38;100.00;100427.63;5039287;28;20131;-77
2023/04/24 04:10:02;;;;;;;1.05;0.93;;;;;;;5.44;100.00;100440.34;5039208;28;20033;-77
2023/04/24 04:12:27;;;;;;;0.60;0.60;;;;;;;5.34;100.00;100435.06;5039430;28;20036;-77
2023/04/24 04:14:56;;;;;;;0.50;0.50;;;;;;;5.26;100.00;100435.81;5023192;28;20033;-78
2023/04/24 04:17:21;;;;;;;0.80;0.80;;;;;;;5.08;100.00;100424.28;5054662;28;20029;-79
2023/04/24 04:19:47;;;;;;;0.60;0.60;;;;;;;5.22;100.00;100441.59;5039397;28;20548;-78
2023/04/24 04:22:13;;;;;;;1.08;1.08;;;;;;;5.27;100.00;100436.66;5039342;28;20045;-78
2023/04/24 04:24:40;;;;;;;0.68;0.68;;;;;;;5.48;100.00;100444.41;5039018;28;20060;-77
2023/04/24 04:27:07;;;;;;;0.57;0.57;;;;;;;5.58;100.00;100442.47;5055962;28;20033;-79
2023/04/24 04:29:36;;;;;;;0.85;0.85;;;;;;;5.71;100.00;100439.44;5039307;28;20537;-78
2023/04/24 04:32:02;;;;;;;0.68;0.65;;;;;;;5.79;100.00;100438.69;5057049;28;20064;-78
2023/04/24 04:34:27;;;;;;;1.73;1.30;;;;;;;5.77;100.00;100416.66;5023107;28;20071;-77
2023/04/24 04:36:53;;;;;;;1.90;0.93;;;;;;;5.88;100.00;100435.09;5022267;28;20036;-77
2023/04/24 04:39:21;;;;;;;1.52;0.93;;;;;;;5.83;100.00;100430.22;5039025;28;20029;-79
2023/04/24 04:41:51;;;;;;;1.55;1.42;;;;;;;5.81;100.00;100437.53;5039407;28;20025;-81
2023/04/24 04:44:16;;;;;;;1.15;1.05;;;;;;;5.79;100.00;100442.19;5038159;28;20036;-77
2023/04/24 04:46:47;;;;;;;0.88;0.75;;;;;;;5.86;100.00;100448.59;5055203;28;20024;-77
2023/04/24 04:49:13;;;;;;;1.40;1.30;;;;;;;5.88;100.00;100435.09;5039129;28;20037;-78
2023/04/24 04:51:39;;;;;;;0.55;0.55;;;;;;;5.83;100.00;100430.22;5055254;28;20083;-80
2023/04/24 04:54:05;;;;;;;0.93;0.80;;;;;;;5.85;100.00;100443.44;5038776;28;20174;-79
2023/04/24 04:56:35;;;;;;;1.60;1.30;;;;;;;5.72;100.00;100447.31;5022289;28;20066;-76
2023/04/24 04:59:00;;;;;;;1.10;1.00;;;;;;;5.59;100.00;100436.16;5022085;28;20426;-76
2023/04/24 05:01:27;;;;;;;0.85;0.85;;;;;;;5.54;100.00;100450.94;5054625;28;20463;-77
2023/04/24 05:03:53;;;;;;;3.53;1.55;;;;;;;5.46;100.00;100452.53;5022430;28;20502;-76
2023/04/24 05:06:18;;;;;;;0.95;0.95;;;;;;;5.38;100.00;100443.63;5054965;28;20033;-77
2023/04/24 05:08:44;;;;;;;1.08;1.08;;;;;;;5.33;100.00;100456.56;5038748;28;20491;-76
2023/04/24 05:11:10;;;;;;;1.67;1.02;;;;;;;5.34;100.00;100458.22;5022229;28;20039;-76
2023/04/24 05:13:35;;;;;;;1.30;0.70;;;;;;;5.38;100.00;100462.28;5037852;28;20029;-76
2023/04/24 05:16:01;;;;;;;0.75;0.75;;;;;;;5.34;100.00;100460.88;5054442;28;20033;-77
2023/04/24 05:18:26;;;;;;;0.93;0.93;;;;;;;5.42;100.00;100476.97;5054362;28;20045;-79
2023/04/24 05:20:52;;;;;;;1.10;0.98;;;;;;;5.43;100.00;100470.66;5055999;28;20077;-77
2023/04/24 05:23:18;;;;;;;3.20;1.55;;;;;;;5.48;100.00;100471.06;5037892;28;20041;-77
2023/04/24 05:25:43;;;;;;;1.00;1.00;;;;;;;5.55;100.00;100466.78;5021625;28;20037;-77
2023/04/24 05:28:09;;;;;;;1.25;1.13;;;;;;;5.62;100.00;100472.38;5037814;28;20399;-77
2023/04/24 05:30:34;;;;;;;1.55;1.30;;;;;;;5.66;100.00;100469.25;5054270;28;20400;-78
2023/04/24 05:33:00;;;;;;;2.28;1.48;;;;;;;5.69;100.00;100460.94;5055854;28;20029;-80
2023/04/24 05:35:26;;;;;;;1.70;1.27;;;;;;;5.80;100.00;100454.53;5038155;28;20179;-80
2023/04/24 05:37:51;;;;;;;1.67;1.33;;;;;;;5.82;100.00;100468.59;5038025;28;20037;-78
2023/04/24 05:40:19;;;;;;;1.10;1.00;;;;;;;5.79;100.00;100476.03;5021722;28;20109;-78
2023/04/24 05:42:47;;;;;;;1.52;1.27;;;;;;;5.75;100.00;100470.16;5038352;28;20033;-78
2023/04/24 05:45:17;;;;;;;3.80;1.90;;;;;;;5.67;100.00;100462.91;5055687;28;20073;-78
2023/04/24 05:47:43;;;;;;;2.25;1.75;;;;;;;5.88;100.00;100499.97;5054448;28;20487;-76
2023/04/24 05:50:10;;;;;;;0.70;0.55;;;;;;;5.88;100.00;100491.16;5037779;28;20029;-77
2023/04/24 05:52:35;;;;;;;1.42;1.23;;;;;;;5.63;100.00;100456.19;5054465;28;20127;-77
2023/04/24 05:55:01;;;;;;;2.83;1.80;;;;;;;5.85;100.00;100500.28;5021195;28;20545;-78
2023/04/24 05:57:27;;;;;;;5.80;1.65;;;;;;;5.84;100.00;100509.28;5053741;28;20107;-77
2023/04/24 05:59:52;;;;;;;0.80;0.80;;;;;;;5.87;100.00;100519.63;5053750;28;20483;-77
2023/04/24 06:02:21;;;;;;;2.63;1.30;;;;;;;5.90;100.00;100518.50;5038141;28;20048;-76
2023/04/24 06:04:48;;;;;;;1.30;0.88;;;;;;;5.95;100.00;100516.25;5037751;28;20064;-78
2023/04/24 06:07:13;;;;;;;1.60;1.48;;;;;;;6.02;100.00;100530.66;5053811;28;20090;-77
2023/04/24 06:09:42;;;;;;;1.88;1.13;;;;;;;6.02;100.00;100533.34;5055359;28;20102;-78
2023/04/24 06:12:08;;;;;;;1.30;1.05;;;;;;;6.05;100.00;100529.53;5020797;28;20084;-77
2023/04/24 06:14:34;;;;;;;1.33;1.23;;;;;;;6.11;100.00;100531.56;5054043;28;20025;-77
2023/04/24 06:17:00;;;;;;;2.30;1.33;;;;;;;6.11;100.00;100543.13;5054807;28;20021;-77
2023/04/24 06:19:25;;;;;;;4.50;1.70;;;;;;;6.11;100.00;100535.09;5053725;28;20467;-77
2023/04/24 06:21:51;;;;;;;1.23;0.90;;;;;;;6.18;100.00;100540.66;5036880;28;20028;-76
2023/04/24 06:24:19;;;;;;;0.90;0.90;;;;;;;6.21;100.00;100547.53;5053465;28;20029;-77
2023/04/24 06:26:45;;;;;;;1.10;1.00;;;;;;;6.23;100.00;100546.38;5054759;28;20470;-77
2023/04/24 06:29:10;;;;;;;1.27;1.10;;;;;;;6.22;100.00;100547.38;5052776;28;20467;-77
2023/04/24 06:31:36;;;;;;;1.00;0.90;;;;;;;6.31;100.00;100558.97;5036882;28;20028;-77
2023/04/24 06:34:03;;;;;;;1.23;1.05;;;;;;;6.27;100.00;100541.56;5037295;28;20475;-77
2023/04/24 06:36:34;;;;;;;2.70;1.10;;;;;;;6.38;100.00;100558.22;5020634;28;20040;-77
2023/04/24 06:38:59;;;;;;;0.90;0.80;;;;;;;6.44;100.00;100555.91;5036875;28;20027;-77
2023/04/24 06:41:25;;;;;;;1.30;0.90;;;;;;;6.46;100.00;100565.47;5036835;28;20037;-76
2023/04/24 06:43:51;;;;;;;2.08;1.50;;;;;;;6.48;100.00;100565.28;5052854;28;20395;-77
2023/04/24 06:46:17;;;;;;;1.40;1.25;;;;;;;6.49;100.00;100573.16;5053352;28;20451;-77
2023/04/24 06:48:42;;;;;;;1.45;1.23;;;;;;;6.40;100.00;100555.38;5036827;28;20036;-77
2023/04/24 06:51:08;;;;;;;1.88;1.00;;;;;;;6.23;100.00;100566.91;5053322;28;20520;-77
2023/04/24 06:53:37;;;;;;;1.58;1.05;;;;;;;6.24;100.00;100585.44;5036432;28;20040;-77
2023/04/24 06:56:03;;;;;;;1.05;0.95;;;;;;;6.16;100.00;100586.19;5052709;28;20029;-77
2023/04/24 06:58:30;;;;;;;2.47;1.33;;;;;;;6.09;100.00;100578.97;5020183;28;20028;-77
2023/04/24 07:00:56;;;;;;;1.40;1.20;;;;;;;6.12;100.00;100598.19;5019299;28;20124;-78
2023/04/24 07:03:21;;;;;;;1.40;1.08;;;;;;;5.98;100.00;100598.69;5020181;28;20486;-79
2023/04/24 07:05:49;;;;;;;1.40;0.93;;;;;;;5.84;100.00;100612.50;5019845;28;20089;-77
2023/04/24 07:08:16;;;;;;;1.48;1.15;;;;;;;5.61;100.00;100607.56;5036602;28;20045;-78
2023/04/24 07:10:43;;;;;;;1.75;0.90;;;;;;;5.67;100.00;100622.97;5036360;28;20067;-77
2023/04/24 07:13:08;;;;;;;1.08;0.98;;;;;;;5.68;100.00;100627.31;5052388;28;20029;-78
2023/04/24 07:15:34;;;;;;;0.73;0.73;;;;;;;5.60;100.00;100619.19;5052635;28;20490;-77
2023/04/24 07:18:00;;;;;;;2.17;0.90;;;;;;;5.70;100.00;100625.34;5036071;28;20047;-77
2023/04/24 07:20:25;;;;;;;3.63;1.20;;;;;;;5.94;100.00;100622.16;5019708;28;20530;-78
2023/04/24 07:22:53;;;;;;;1.17;0.90;;;;;;;6.04;100.00;100630.13;5052251;28;20029;-77
2023/04/24 07:25:19;;;;;;;0.65;0.65;;;;;;;6.20;100.00;100649.97;5036236;28;20111;-77
2023/04/24 07:27:47;;;;;;;1.10;0.98;;;;;;;6.42;100.00;100641.53;5035888;28;20052;-78
2023/04/24 07:30:13;;;;;;;0.73;0.73;;;;;;;6.51;100.00;100645.09;5036059;28;20025;-78
2023/04/24 07:32:39;;;;;;;0.60;0.60;;;;;;;6.42;100.00;100649.53;5052171;28;20074;-77
2023/04/24 07:35:05;;;;;;;0.82;0.80;;;;;;;6.41;100.00;100655.03;5053128;28;20033;-78
2023/04/24 07:37:31;;;;;;;1.38;1.00;;;;;;;6.18;100.00;100649.28;5035529;28;20033;-77
2023/04/24 07:39:56;;;;;;;0.75;0.75;;;;;;;6.28;100.00;100660.75;5035396;28;20386;-77
2023/04/24 07:42:22;;;;;;;1.58;1.13;;;;;;;6.36;100.00;100664.34;5035857;28;20033;-77
2023/04/24 07:44:48;;;;;;;1.95;1.25;;;;;;;6.54;100.00;100661.69;5053425;28;20025;-77
2023/04/24 07:47:16;;;;;;;0.80;0.80;;;;;;;6.65;100.00;100671.31;5052181;28;20035;-78
2023/04/24 07:49:45;;;;;;;1.15;0.90;;;;;;;6.78;100.00;100679.78;5019248;28;20052;-79
2023/04/24 07:52:13;;;;;;;1.00;0.90;;;;;;;6.87;100.00;100691.38;5036304;28;20039;-77
2023/04/24 07:54:38;;;;;;;1.27;0.80;;;;;;;6.81;100.00;100679.47;5035769;28;20029;-77
2023/04/24 07:57:06;;;;;;;1.35;0.90;;;;;;;6.88;100.00;100687.72;5035780;28;20532;-78
2023/04/24 07:59:31;;;;;;;2.33;0.90;;;;;;;6.90;100.00;100695.56;5051789;28;20024;-77
2023/04/24 08:01:57;;;;;;;1.02;0.93;;;;;;;6.88;100.00;100703.78;5035440;28;20083;-76
2023/04/24 08:04:23;;;;;;;1.65;1.15;;;;;;;6.86;100.00;100700.41;5052106;28;20033;-77
2023/04/24 08:06:49;;;;;;;4.07;1.50;;;;;;;6.94;100.00;100689.78;5035573;28;20418;-78
2023/04/24 08:09:15;;;;;;;2.45;0.98;;;;;;;6.92;100.00;100683.75;5019264;28;20520;-76
2023/04/24 08:11:41;;;;;;;1.60;1.10;;;;;;;7.10;100.00;100715.81;5035719;28;20483;-77
2023/04/24 08:14:06;;;;;;;3.10;1.13;;;;;;;7.15;100.00;100708.16;5035584;28;20083;-77
2023/04/24 08:16:32;;;;;;;0.93;0.90;;;;;;;7.25;100.00;100692.88;5035643;28;20029;-80
2023/04/24 08:18:58;;;;;;;1.17;0.90;;;;;;;7.71;100.00;100711.41;5035077;28;20029;-79
2023/04/24 08:21:24;;;;;;;1.60;1.42;;;;;;;7.98;100.00;100714.88;5051821;28;20110;-78
2023/04/24 08:23:55;;;;;;;3.20;1.20;;;;;;;8.08;100.00;100715.59;5035427;28;20052;-79
2023/04/24 08:26:21;;;;;;;1.02;0.93;;;;;;;7.99;100.00;100727.25;5035526;28;20032;-78
2023/04/24 08:28:46;;;;;;;2.22;1.30;;;;;;;7.90;100.00;100732.56;5052915;28;20392;-78
2023/04/24 08:31:12;;;;;;;0.88;0.80;;;;;;;7.89;100.00;100722.88;5035213;28;20072;-78
2023/04/24 08:33:37;;;;;;;1.20;0.88;;;;;;;7.91;100.00;100706.63;5052069;28;20052;-78
2023/04/24 08:36:05;;;;;;;1.45;1.17;;;;;;;8.17;100.00;100719.97;5018410;28;20503;-79
2023/04/24 08:38:31;;;;;;;1.20;1.00;;;;;;;8.30;100.00;100728.41;5018884;28;20052;-78
2023/04/24 08:40:59;;;;;;;1.60;1.17;;;;;;;8.23;100.00;100739.94;5035330;28;20482;-77
2023/04/24 08:43:25;;;;;;;1.15;1.00;;;;;;;8.20;100.00;100734.91;5034984;28;20025;-78
2023/04/24 08:45:52;;;;;;;1.05;0.85;;;;;;;8.19;100.00;100734.06;5035570;28;20029;-79
2023/04/24 08:48:18;;;;;;;4.07;1.75;;;;;;;8.38;100.00;100746.34;5035301;28;20041;-80
2023/04/24 08:50:44;;;;;;;0.90;0.80;;;;;;;8.50;100.00;100736.22;5049770;28;20372;-80
2023/04/24 08:53:10;;;;;;;2.67;1.45;;;;;;;8.62;100.00;100742.94;5020735;28;20521;-80
2023/04/24 08:55:37;;;;;;;1.80;1.10;;;;;;;8.53;100.00;100751.97;5038735;28;20471;-80
2023/04/24 08:58:03;;;;;;;4.07;1.00;;;;;;;8.27;100.00;100763.56;5021878;28;20059;-80
2023/04/24 09:00:32;;;;;;;1.08;0.98;;;;;;;8.35;100.00;100776.97;5021984;28;20483;-80
2023/04/24 09:03:00;;;;;;;1.30;1.13;;;;;;;9.69;100.00;100771.53;5054909;28;20037;-80
2023/04/24 09:05:27;;;;;;;2.40;1.00;;;;;;;10.11;100.00;100770.44;5038634;28;20025;-81
2023/04/24 09:07:58;;;;;;;0.90;0.90;;;;;;;10.11;100.00;100783.88;5054738;28;20029;-81
2023/04/24 09:10:25;;;;;;;1.00;0.82;;;;;;;9.90;100.00;100781.75;5022673;28;20043;-81
2023/04/24 09:12:51;;;;;;;1.00;0.90;;;;;;;10.10;100.00;100784.03;5038588;28;20036;-79
2023/04/24 09:15:21;;;;;;;0.80;0.80;;;;;;;10.26;100.00;100788.53;5022097;28;20029;-80
2023/04/24 09:17:47;;;;;;;0.82;0.82;;;;;;;9.85;98.85;100759.09;5021973;28;20037;-79
2023/04/24 09:20:13;;;;;;;0.80;0.80;;;;;;;10.31;99.53;100802.31;5021286;28;20039;-80
2023/04/24 09:22:42;;;;;;;2.03;1.00;;;;;;;10.46;97.09;100795.22;5037971;28;20107;-80
2023/04/24 09:25:08;;;;;;;1.48;1.00;;;;;;;10.37;94.98;100800.78;5054862;28;20037;-80
2023/04/24 09:27:34;;;;;;;1.63;1.23;;;;;;;10.40;88.90;100789.69;5038491;28;20048;-80
2023/04/24 09:30:01;;;;;;;1.40;1.20;;;;;;;10.50;93.18;100814.50;5038209;28;20037;-80
2023/04/24 09:32:29;;;;;;;1.00;0.90;;;;;;;10.93;84.44;100786.25;5054487;28;20060;-80
2023/04/24 09:35:27;;;;;;;0.95;0.88;;;;;;;11.07;80.69;100808.03;5021673;28;20037;-80
2023/04/24 09:37:53;;;;;;;1.00;0.90;;;;;;;10.81;81.72;100797.56;5032107;28;20040;-80
2023/04/24 09:40:22;;;;;;;1.30;1.10;;;;;;;10.65;77.71;100802.03;5037449;28;20091;-80
2023/04/24 09:43:03;;;;;;;1.88;1.08;;;;;;;10.94;82.25;100795.16;5038374;28;20029;-80
2023/04/24 09:45:35;;;;;;;1.25;1.00;;;;;;;12.71;71.39;100824.34;5037979;28;20427;-80
2023/04/24 09:48:01;;;;;;;1.60;1.35;;;;;;;13.96;71.11;100822.28;5021145;28;20060;-80
2023/04/24 09:50:27;;;;;;;1.05;0.98;;;;;;;13.04;63.61;100814.97;5037756;28;20059;-80
2023/04/24 09:52:57;;;;;;;3.22;1.02;;;;;;;11.78;72.31;100828.34;5054091;28;20075;-77
2023/04/24 09:55:25;;;;;;;2.05;1.08;;;;;;;11.23;76.33;100829.44;5020659;28;20067;-77
2023/04/24 09:57:56;;;;;;;1.67;1.15;;;;;;;10.92;74.69;100832.16;5021085;28;20049;-80
2023/04/24 10:00:26;;;;;;;1.10;1.00;;;;;;;10.32;78.75;100838.94;5020883;28;20091;-80
2023/04/24 10:03:03;;;;;;;1.23;1.10;;;;;;;9.91;81.88;100849.72;5054000;28;20033;-77
2023/04/24 10:05:33;;;;;;;2.15;1.20;;;;;;;9.73;84.18;100855.25;5021719;28;20036;-76
2023/04/24 10:08:07;;;;;;;1.42;1.10;;;;;;;9.66;86.67;100857.78;5021272;28;20091;-78
2023/04/24 10:10:35;;;;;;;1.20;0.98;;;;;;;9.59;84.96;100840.66;5020945;28;20082;-78
2023/04/24 10:13:03;;;;;;;3.65;2.28;;;;;;;9.53;86.77;100860.13;5020879;28;20438;-78
2023/04/24 10:15:30;;;;;;;1.52;1.30;;;;;;;9.99;83.20;100857.78;5037328;28;20103;-81
2023/04/24 10:18:01;;;;;;;1.60;1.00;;;;;;;10.23;82.60;100858.75;5020543;28;20477;-80
2023/04/24 10:20:30;;;;;;;2.00;1.35;;;;;;;10.54;80.71;100866.94;5053330;28;20110;-79
2023/04/24 10:22:57;;;;;;;1.80;0.95;;;;;;;10.68;78.78;100857.31;5037291;28;20095;-81
2023/04/24 10:25:25;;;;;;;2.58;1.38;;;;;;;10.88;81.34;100869.31;5020696;28;20090;-76
2023/04/24 10:27:52;;;;;;;2.10;1.02;;;;;;;11.13;78.97;100879.97;5036980;28;20049;-80
2023/04/24 10:30:21;;;;;;;2.20;1.30;;;;;;;11.33;74.75;100873.13;5021405;28;20041;-80
2023/04/24 10:32:47;;;;;;;1.30;1.10;;;;;;;11.35;70.42;100881.88;5020693;28;20039;-79
2023/04/24 10:35:14;;;;;;;1.45;1.00;;;;;;;11.54;70.37;100880.56;5037107;28;20040;-78
2023/04/24 10:37:51;;;;;;;2.25;1.00;;;;;;;12.14;70.01;100881.59;5020240;28;20136;-78
2023/04/24 10:40:26;;;;;;;2.35;1.27;;;;;;;13.66;67.57;100884.63;5052940;28;20032;-78
2023/04/24 10:42:53;;;;;;;1.52;1.17;;;;;;;14.35;58.98;100886.66;5053141;28;20128;-78
2023/04/24 10:45:21;;;;;;;1.33;1.00;;;;;;;14.07;58.38;100883.94;5020419;28;20446;-80
2023/04/24 10:47:52;;;;;;;1.55;0.90;;;;;;;14.22;55.11;100864.91;5052979;28;20434;-79
2023/04/24 10:50:17;;;;;;;1.02;0.88;;;;;;;14.00;57.10;100894.72;5035919;28;20578;-78
2023/04/24 10:52:54;;;;;;;3.15;1.00;;;;;;;14.01;57.81;100872.03;5054159;28;20077;-80
2023/04/24 10:56:05;;;;;;;1.70;1.10;;;;;;;14.31;55.41;100885.38;5037363;28;20083;-80
2023/04/24 10:58:44;;;;;;;2.63;0.90;;;;;;;14.45;56.12;100897.97;4998702;28;20056;-81
2023/04/24 11:01:33;;;;;;;3.55;1.35;;;;;;;14.36;55.68;100907.25;5051517;28;20056;-77
2023/04/24 11:04:01;;;;;;;1.83;1.15;;;;;;;14.17;54.85;100900.66;5052786;28;20416;-78
2023/04/24 11:06:35;;;;;;;1.52;1.20;;;;;;;14.17;55.06;100894.41;5051867;28;20061;-77
2023/04/24 11:09:16;;;;;;;3.17;1.38;;;;;;;13.99;52.70;100897.59;5052741;28;20112;-79
2023/04/24 11:11:46;;;;;;;1.15;1.05;;;;;;;14.30;51.33;100900.75;5052315;28;20526;-78
2023/04/24 11:14:17;;;;;;;1.08;0.98;;;;;;;15.45;48.56;100897.59;5019133;28;20021;-79
2023/04/24 11:16:53;;;;;;;1.10;1.00;;;;;;;15.42;50.76;100903.44;5036219;28;20147;-79
2023/04/24 11:19:28;;;;;;;1.88;1.30;;;;;;;15.93;48.29;100871.25;5051711;28;20079;-80
2023/04/24 11:22:05;;;;;;;2.15;1.25;;;;;;;17.66;44.77;100900.59;5052598;28;20111;-77
2023/04/24 11:24:35;;;;;;;1.08;0.98;;;;;;;16.79;46.09;100900.16;5019312;28;20040;-82